Time;durP1;ratioP1;P1;durP2;ratioP2;P2;SDS_P1;SDS_P2;PMS_P1;PMS_P2;Temp;Humidity;BMP_temperature;BMP_pressure;BME280_temperature;BME280_humidity;BME280_pressure;Samples;Min_cycle;Max_cycle;Signal;HPM_P1;HPM_P2
2023/12/17 00:01:21;;;;;;;;;90.00;63.67;;;;;1.67;100.00;101788.22;6315060;20;3645147;-44
2023/12/17 00:03:52;;;;;;;;;71.67;51.00;;;;;1.59;100.00;101785.50;6316005;20;3645045;-44
2023/12/17 00:06:22;;;;;;;;;86.33;63.00;;;;;1.68;100.00;101779.38;6313455;20;3658665;-44
2023/12/17 00:08:52;;;;;;;;;88.33;67.33;;;;;1.81;100.00;101781.25;6283459;20;3642994;-44
2023/12/17 00:11:22;;;;;;;;;93.33;67.33;;;;;1.69;100.00;101775.88;6315254;20;3633625;-44
2023/12/17 00:13:52;;;;;;;;;78.00;59.00;;;;;1.81;100.00;101775.97;6314969;20;2885845;-45
2023/12/17 00:16:21;;;;;;;;;84.33;65.67;;;;;1.79;100.00;101777.75;6311643;20;3636713;-44
2023/12/17 00:18:51;;;;;;;;;87.33;64.67;;;;;1.74;100.00;101782.09;6314337;20;3649356;-44
2023/12/17 00:21:21;;;;;;;;;85.00;63.67;;;;;1.71;100.00;101779.41;6312003;20;3654412;-44
2023/12/17 00:23:51;;;;;;;;;79.33;62.33;;;;;1.69;100.00;101786.47;6311188;20;3628395;-43
2023/12/17 00:26:20;;;;;;;;;92.33;69.33;;;;;1.60;100.00;101781.09;6314100;20;3634676;-44
2023/12/17 00:28:50;;;;;;;;;84.67;63.33;;;;;1.66;100.00;101775.81;6313093;20;3653373;-44
2023/12/17 00:31:20;;;;;;;;;87.00;64.67;;;;;1.73;100.00;101767.06;6314311;20;3663822;-44
2023/12/17 00:33:49;;;;;;;;;78.00;64.50;;;;;1.68;100.00;101769.66;6315227;20;2870114;-43
2023/12/17 00:36:19;;;;;;;;;81.00;61.67;;;;;1.77;100.00;101779.47;6282988;20;2883731;-46
2023/12/17 00:38:49;;;;;;;;;86.33;66.00;;;;;1.66;100.00;101775.81;6314939;20;3642002;-45
2023/12/17 00:41:18;;;;;;;;;81.33;62.67;;;;;1.62;100.00;101766.97;6313496;20;2891117;-46
2023/12/17 00:43:47;;;;;;;;;78.50;63.00;;;;;1.86;100.00;101774.25;6315130;20;2851804;-44
2023/12/17 00:46:17;;;;;;;;;85.00;61.33;;;;;1.98;100.00;101778.75;6282839;20;3663776;-43
2023/12/17 00:48:47;;;;;;;;;76.67;61.33;;;;;1.93;100.00;101775.19;6313733;20;2883836;-44
2023/12/17 00:51:18;;;;;;;;;54.00;38.33;;;;;2.03;100.00;101784.06;6314206;20;3625232;-44
2023/12/17 00:53:48;;;;;;;;;75.67;58.00;;;;;2.20;100.00;101783.31;6313512;20;2883697;-45
2023/12/17 00:56:17;;;;;;;;;73.00;58.00;;;;;2.20;100.00;101779.78;6314765;20;2873158;-46
2023/12/17 00:58:47;;;;;;;;;73.33;55.67;;;;;2.28;100.00;101762.16;6314093;20;3636849;-44
2023/12/17 01:01:17;;;;;;;;;79.33;55.67;;;;;2.13;100.00;101754.13;6313295;20;3628367;-44
2023/12/17 01:03:46;;;;;;;;;65.50;53.00;;;;;2.20;100.00;101759.47;6313998;20;2867986;-45
2023/12/17 01:06:16;;;;;;;;;78.33;57.33;;;;;2.31;100.00;101772.78;6282801;20;3651307;-44
2023/12/17 01:08:45;;;;;;;;;63.50;54.00;;;;;2.19;100.00;101783.31;6313777;20;2865936;-45
2023/12/17 01:11:14;;;;;;;;;68.50;53.00;;;;;2.33;100.00;101786.94;6281619;20;2866949;-44
2023/12/17 01:13:42;;;;;;;;;73.50;56.00;;;;;2.22;100.00;101787.75;6280984;20;2875340;-45
2023/12/17 01:16:12;;;;;;;;;83.67;59.00;;;;;2.07;100.00;101788.53;6279937;20;3663783;-44
2023/12/17 01:18:42;;;;;;;;;88.00;60.33;;;;;2.18;100.00;101789.47;6314391;20;3661791;-44
2023/12/17 01:21:12;;;;;;;;;82.33;63.00;;;;;1.85;100.00;101796.31;6308442;20;3635650;-44
2023/12/17 01:23:42;;;;;;;;;72.67;53.67;;;;;1.87;100.00;101786.63;6314904;20;2881540;-45
2023/12/17 01:26:22;;;;;;;;;80.33;60.00;;;;;1.80;100.00;101795.38;6312677;20;2880521;-43
2023/12/17 01:28:58;;;;;;;;;79.33;56.33;;;;;1.74;100.00;101790.06;6314121;20;3654427;-46
2023/12/17 01:31:28;;;;;;;;;77.67;59.33;;;;;1.54;100.00;101788.09;6313622;20;2885801;-45
2023/12/17 01:33:58;;;;;;;;;79.33;59.33;;;;;1.53;100.00;101786.34;6312475;20;2895111;-45
2023/12/17 01:36:28;;;;;;;;;79.00;57.67;;;;;1.40;100.00;101776.50;6312604;20;3641967;-47
2023/12/17 01:38:57;;;;;;;;;74.00;58.33;;;;;1.78;100.00;101777.72;6312997;20;2878524;-43
2023/12/17 01:41:27;;;;;;;;;73.33;57.00;;;;;1.80;100.00;101768.91;6311720;20;3633099;-44
2023/12/17 01:43:57;;;;;;;;;75.67;60.00;;;;;1.71;100.00;101771.47;6314620;20;2887897;-44
2023/12/17 01:46:27;;;;;;;;;77.67;60.33;;;;;1.86;100.00;101771.59;6310791;20;2881637;-44
2023/12/17 01:48:58;;;;;;;;;78.00;60.67;;;;;1.56;100.00;101768.72;6309782;20;2881686;-45
2023/12/17 01:51:28;;;;;;;;;86.33;63.33;;;;;1.63;100.00;101778.44;6309221;20;3647129;-45
2023/12/17 01:54:00;;;;;;;;;85.33;64.00;;;;;1.35;100.00;101779.97;6311616;20;3646197;-43
2023/12/17 01:56:30;;;;;;;;;77.00;58.33;;;;;1.54;100.00;101784.56;6308950;20;3632571;-44
2023/12/17 01:59:02;;;;;;;;;79.67;61.67;;;;;1.45;100.00;101782.72;6312726;20;2885806;-46
2023/12/17 02:01:32;;;;;;;;;83.00;62.67;;;;;0.95;100.00;101788.38;6306290;20;2888911;-45
2023/12/17 02:04:01;;;;;;;;;71.00;57.00;;;;;0.44;100.00;101778.88;6310735;20;2850350;-45
2023/12/17 02:06:31;;;;;;;;;76.67;57.33;;;;;0.46;100.00;101782.44;6278836;20;2881691;-43
2023/12/17 02:09:00;;;;;;;;;81.33;61.00;;;;;0.57;100.00;101796.69;6311981;20;2896160;-43
2023/12/17 02:11:30;;;;;;;;;83.67;60.67;;;;;0.83;100.00;101789.09;6310352;20;3652413;-46
2023/12/17 02:14:00;;;;;;;;;84.00;66.00;;;;;0.88;100.00;101791.81;6313115;20;2887834;-44
2023/12/17 02:16:30;;;;;;;;;83.67;62.67;;;;;0.90;100.00;101778.63;6310419;20;3646247;-44
2023/12/17 02:19:01;;;;;;;;;92.00;63.67;;;;;0.36;100.00;101777.91;6311372;20;3644044;-44
2023/12/17 02:21:31;;;;;;;;;81.67;62.33;;;;;0.78;100.00;101784.63;6310506;20;2884719;-44
2023/12/17 02:24:00;;;;;;;;;81.00;61.50;;;;;1.02;100.00;101778.72;6310308;20;3519008;-45
2023/12/17 02:26:30;;;;;;;;;84.67;66.00;;;;;0.97;100.00;101785.72;6308129;20;3644029;-44
2023/12/17 02:29:00;;;;;;;;;84.33;64.00;;;;;0.95;100.00;101768.94;6311280;20;3634665;-43
2023/12/17 02:31:29;;;;;;;;;87.00;65.33;;;;;1.03;100.00;101762.00;6312337;20;3650279;-45
2023/12/17 02:33:59;;;;;;;;;83.33;62.67;;;;;0.78;100.00;101755.53;6312307;20;3648183;-44
2023/12/17 02:36:29;;;;;;;;;80.00;61.33;;;;;0.99;100.00;101761.06;6312911;20;3636893;-44
2023/12/17 02:38:59;;;;;;;;;87.00;64.00;;;;;0.40;100.00;101759.47;6311677;20;3657597;-44
2023/12/17 02:41:29;;;;;;;;;92.00;67.00;;;;;0.25;100.00;101759.25;6310794;20;3649306;-44
2023/12/17 02:43:57;;;;;;;;;74.00;59.50;;;;;0.14;100.00;101753.81;6311808;20;2854419;-44
2023/12/17 02:46:27;;;;;;;;;84.67;62.33;;;;;0.29;100.00;101766.38;6279162;20;2900326;-44
2023/12/17 02:48:57;;;;;;;;;87.00;63.00;;;;;0.20;100.00;101769.75;6311465;20;3663804;-43
2023/12/17 02:51:27;;;;;;;;;79.00;61.00;;;;;0.26;100.00;101765.44;6313690;20;2885829;-45
2023/12/17 02:53:55;;;;;;;;;79.50;61.00;;;;;0.41;100.00;101763.00;6311687;20;2874235;-44
2023/12/17 02:56:24;;;;;;;;;73.00;57.00;;;;;0.25;100.00;101758.38;6281151;20;2865931;-44
2023/12/17 02:58:54;;;;;;;;;80.33;58.33;;;;;0.25;100.00;101748.69;6280378;20;3636814;-45
2023/12/17 03:01:24;;;;;;;;;84.67;61.67;;;;;0.41;100.00;101744.50;6311842;20;3639905;-44
2023/12/17 03:03:53;;;;;;;;;82.67;62.67;;;;;0.45;100.00;101741.06;6311154;20;2884720;-44
2023/12/17 03:06:24;;;;;;;;;84.33;61.67;;;;;0.48;100.00;101730.50;6311936;20;3650269;-44
2023/12/17 03:08:53;;;;;;;;;86.33;64.00;;;;;0.54;100.00;101735.88;6310865;20;3653376;-45
2023/12/17 03:11:23;;;;;;;;;78.67;61.67;;;;;0.57;100.00;101745.59;6310524;20;3635118;-44
2023/12/17 03:13:53;;;;;;;;;79.33;61.33;;;;;0.67;100.00;101730.75;6309523;20;2887894;-43
2023/12/17 03:16:23;;;;;;;;;69.50;56.50;;;;;0.42;100.00;101726.03;6306031;20;2500294;-43
2023/12/17 03:18:53;;;;;;;;;76.33;58.33;;;;;0.58;100.00;101720.91;6280648;20;2879557;-44
2023/12/17 03:21:23;;;;;;;;;66.50;55.50;;;;;0.72;100.00;101726.41;6304512;20;2487780;-44
2023/12/17 03:23:51;;;;;;;;;73.50;58.00;;;;;1.27;100.00;101734.91;6275932;20;2500349;-43
2023/12/17 03:26:23;;;;;;;;;76.00;58.00;;;;;1.52;100.00;101731.59;6277233;20;2771129;-44
2023/12/17 03:28:52;;;;;;;;;73.33;57.00;;;;;1.40;100.00;101736.81;6309624;20;3638761;-44
2023/12/17 03:31:21;;;;;;;;;71.00;55.00;;;;;1.29;100.00;101733.16;6310515;20;2876296;-43
2023/12/17 03:33:50;;;;;;;;;71.00;55.50;;;;;0.98;100.00;101727.56;6279353;20;2884729;-43
2023/12/17 03:36:20;;;;;;;;;80.33;60.67;;;;;1.25;100.00;101731.34;6279841;20;3646203;-46
2023/12/17 03:38:50;;;;;;;;;76.33;54.67;;;;;1.27;100.00;101734.91;6308855;20;2883716;-45
2023/12/17 03:41:26;;;;;;;;;76.33;56.00;;;;;1.31;100.00;101737.56;6311932;20;2899388;-44
2023/12/17 03:43:57;;;;;;;;;76.33;59.00;;;;;1.13;100.00;101740.03;6309216;20;2880611;-45
2023/12/17 03:46:26;;;;;;;;;65.50;52.00;;;;;1.19;100.00;101744.53;6309744;20;2856511;-43
2023/12/17 03:48:54;;;;;;;;;67.50;53.50;;;;;1.18;100.00;101755.97;6275569;20;2500272;-46
2023/12/17 03:51:23;;;;;;;;;67.50;55.50;;;;;1.22;100.00;101742.81;6279283;20;2875284;-44
2023/12/17 03:53:52;;;;;;;;;65.50;51.50;;;;;1.05;100.00;101744.38;6276865;20;2860661;-43
2023/12/17 03:56:23;;;;;;;;;67.00;51.00;;;;;1.10;100.00;101743.53;6275003;20;2497176;-43
2023/12/17 03:58:52;;;;;;;;;64.50;50.00;;;;;0.99;100.00;101733.75;6278114;20;2866941;-44
2023/12/17 04:01:20;;;;;;;;;72.00;56.00;;;;;0.95;100.00;101737.22;6280730;20;2876349;-43
2023/12/17 04:03:49;;;;;;;;;73.00;54.00;;;;;1.05;100.00;101724.13;6276927;20;2880526;-46
2023/12/17 04:06:18;;;;;;;;;68.50;51.00;;;;;0.95;100.00;101724.91;6277373;20;2877352;-44
2023/12/17 04:08:52;;;;;;;;;71.50;55.00;;;;;0.78;100.00;101723.81;6276019;20;2879571;-45
2023/12/17 04:11:23;;;;;;;;;64.50;49.50;;;;;1.21;100.00;101729.53;6278526;20;2867036;-44
2023/12/17 04:13:52;;;;;;;;;68.50;51.50;;;;;1.31;100.00;101723.47;6278057;20;2863912;-46
2023/12/17 04:16:20;;;;;;;;;48.50;39.50;;;;;1.28;100.00;101720.81;6277723;20;2856610;-44
2023/12/17 04:18:49;;;;;;;;;76.00;51.67;;;;;1.37;100.00;101735.88;6278891;20;2881600;-45
2023/12/17 04:21:19;;;;;;;;;69.50;53.50;;;;;1.11;100.00;101733.88;6309375;20;2871150;-44
2023/12/17 04:23:48;;;;;;;;;67.50;51.00;;;;;1.09;100.00;101732.97;6277347;20;2878406;-44
2023/12/17 04:26:18;;;;;;;;;71.00;55.67;;;;;1.00;100.00;101730.22;6281599;20;2885732;-45
2023/12/17 04:28:47;;;;;;;;;76.00;55.00;;;;;0.67;100.00;101721.03;6314285;20;2776415;-44
2023/12/17 04:31:15;;;;;;;;;71.50;56.50;;;;;0.96;100.00;101724.00;6280433;20;2872135;-45
2023/12/17 04:33:44;;;;;;;;;75.00;56.50;;;;;0.97;100.00;101716.97;6284227;20;2877438;-44
2023/12/17 04:36:14;;;;;;;;;79.67;60.67;;;;;1.04;100.00;101714.41;6284322;20;2893134;-43
2023/12/17 04:38:46;;;;;;;;;79.67;62.00;;;;;0.47;100.00;101718.16;6315919;20;2878433;-46
2023/12/17 04:41:17;;;;;;;;;75.00;58.00;;;;;0.56;100.00;101735.91;6315828;20;2882700;-44
2023/12/17 04:43:47;;;;;;;;;84.67;61.33;;;;;0.77;100.00;101727.34;6313895;20;3657610;-43
2023/12/17 04:46:16;;;;;;;;;77.00;60.00;;;;;0.72;100.00;101731.69;6316430;20;2876335;-45
2023/12/17 04:48:45;;;;;;;;;69.00;55.50;;;;;0.71;100.00;101725.50;6283650;20;2873230;-44
2023/12/17 04:51:15;;;;;;;;;71.50;55.00;;;;;0.86;100.00;101711.56;6281982;20;2876416;-44
2023/12/17 04:53:44;;;;;;;;;70.00;53.00;;;;;1.19;100.00;101712.78;6282260;20;2871111;-45
2023/12/17 04:56:13;;;;;;;;;59.00;47.00;;;;;1.24;100.00;101709.31;6283017;20;2863947;-44
2023/12/17 04:58:43;;;;;;;;;67.67;48.33;;;;;1.18;100.00;101709.22;6282129;20;2881594;-45
2023/12/17 05:01:13;;;;;;;;;72.33;48.67;;;;;1.28;100.00;101705.81;6313301;20;3642035;-48
2023/12/17 05:03:42;;;;;;;;;61.00;49.00;;;;;1.62;100.00;101703.44;6312836;20;2870104;-48
2023/12/17 05:06:12;;;;;;;;;61.67;46.33;;;;;1.56;100.00;101716.66;6283126;20;2872363;-46
2023/12/17 05:08:41;;;;;;;;;66.33;47.67;;;;;1.59;100.00;101714.00;6313027;20;2873280;-43
2023/12/17 05:11:11;;;;;;;;;67.33;49.00;;;;;1.77;100.00;101726.50;6312847;20;2878429;-44
2023/12/17 05:13:41;;;;;;;;;66.33;47.00;;;;;1.91;100.00;101735.44;6313314;20;2891105;-46
2023/12/17 05:16:10;;;;;;;;;64.00;52.00;;;;;1.98;100.00;101731.97;6311208;20;2862784;-44
2023/12/17 05:18:38;;;;;;;;;67.00;52.00;;;;;1.85;100.00;101743.34;6280802;20;2865903;-46
2023/12/17 05:21:09;;;;;;;;;64.50;51.00;;;;;1.81;100.00;101749.47;6280394;20;2864864;-44
2023/12/17 05:23:37;;;;;;;;;67.00;53.00;;;;;1.78;100.00;101752.09;6283055;20;2868080;-44
2023/12/17 05:26:07;;;;;;;;;71.00;54.00;;;;;1.96;100.00;101754.91;6280286;20;2878381;-44
2023/12/17 05:28:37;;;;;;;;;67.00;52.50;;;;;1.82;100.00;101751.28;6312642;20;2871212;-45
2023/12/17 05:31:08;;;;;;;;;75.00;57.33;;;;;1.64;100.00;101741.41;6278329;20;3629418;-44
2023/12/17 05:33:36;;;;;;;;;72.00;55.50;;;;;1.50;100.00;101736.00;6313510;20;2864856;-43
2023/12/17 05:36:07;;;;;;;;;71.67;57.00;;;;;1.69;100.00;101737.03;6278783;20;2876452;-45
2023/12/17 05:38:36;;;;;;;;;73.00;55.00;;;;;1.50;100.00;101733.38;6313528;20;2886808;-45
2023/12/17 05:41:06;;;;;;;;;72.50;56.50;;;;;1.43;100.00;101726.25;6279379;20;2872156;-44
2023/12/17 05:43:35;;;;;;;;;68.50;53.50;;;;;1.24;100.00;101729.59;6281574;20;2871098;-45
2023/12/17 05:46:05;;;;;;;;;72.00;54.00;;;;;1.01;100.00;101745.22;6281345;20;2882864;-43
2023/12/17 05:48:34;;;;;;;;;69.00;52.50;;;;;1.10;100.00;101738.25;6312747;20;2876329;-45
2023/12/17 05:51:08;;;;;;;;;66.00;51.00;;;;;1.27;100.00;101741.09;6279395;20;2850292;-43
2023/12/17 05:53:37;;;;;;;;;69.00;54.00;;;;;1.19;100.00;101740.13;6283571;20;2862854;-43
2023/12/17 05:56:14;;;;;;;;;61.00;49.00;;;;;1.32;100.00;101741.13;6280207;20;2492984;-45
2023/12/17 05:58:43;;;;;;;;;67.00;52.50;;;;;1.15;100.00;101734.78;6280427;20;2867994;-46
2023/12/17 06:01:12;;;;;;;;;65.00;52.00;;;;;1.46;100.00;101726.25;6279782;20;2856547;-44
2023/12/17 06:03:41;;;;;;;;;66.00;49.00;;;;;1.41;100.00;101712.09;6279862;20;2874329;-44
2023/12/17 06:06:11;;;;;;;;;68.33;52.00;;;;;1.29;100.00;101693.44;6282924;20;2878460;-45
2023/12/17 06:08:40;;;;;;;;;68.50;49.50;;;;;1.15;100.00;101695.09;6310929;20;2877362;-44
2023/12/17 06:11:18;;;;;;;;;65.00;50.00;;;;;1.24;100.00;101700.50;6278135;20;2867020;-43
2023/12/17 06:13:46;;;;;;;;;62.50;49.00;;;;;1.20;100.00;101702.22;6278304;20;2498265;-44
2023/12/17 06:16:16;;;;;;;;;72.33;53.33;;;;;0.93;100.00;101692.25;6279604;20;2888913;-45
2023/12/17 06:18:45;;;;;;;;;69.00;51.00;;;;;1.03;100.00;101694.13;6313889;20;2871110;-46
2023/12/17 06:21:26;;;;;;;;;68.00;54.00;;;;;1.15;100.00;101697.75;6312601;20;2861841;-44
2023/12/17 06:23:58;;;;;;;;;69.50;52.50;;;;;1.04;100.00;101690.59;6280290;20;2869027;-43
2023/12/17 06:26:28;;;;;;;;;67.50;52.00;;;;;0.80;100.00;101666.56;6281400;20;2864838;-43
2023/12/17 06:28:58;;;;;;;;;69.00;48.33;;;;;0.95;100.00;101685.22;6278660;20;2872185;-43
2023/12/17 06:31:27;;;;;;;;;70.00;54.00;;;;;1.36;100.00;101681.19;6309365;20;2869079;-45
2023/12/17 06:33:56;;;;;;;;;59.00;46.67;;;;;1.42;100.00;101678.56;6281783;20;3607562;-44
2023/12/17 06:36:25;;;;;;;;;57.33;46.33;;;;;1.51;100.00;101671.59;6281316;20;2876421;-44
2023/12/17 06:38:54;;;;;;;;;24.33;12.67;;;;;1.59;100.00;101684.00;6309097;20;3571137;-44
2023/12/17 06:41:24;;;;;;;;;58.67;43.00;;;;;1.82;100.00;101679.75;6311548;20;2883860;-44
2023/12/17 06:43:53;;;;;;;;;45.50;40.00;;;;;1.86;100.00;101685.97;6311290;20;2863949;-44
2023/12/17 06:46:22;;;;;;;;;51.00;44.00;;;;;1.74;100.00;101684.13;6281989;20;2854449;-45
2023/12/17 06:48:51;;;;;;;;;50.00;38.00;;;;;2.04;100.00;101687.84;6282457;20;2871145;-45
2023/12/17 06:51:22;;;;;;;;;60.33;44.00;;;;;1.86;100.00;101688.59;6281206;20;2865970;-44
2023/12/17 06:53:51;;;;;;;;;41.50;40.00;;;;;1.92;100.00;101692.19;6312459;20;2866144;-45
2023/12/17 06:56:22;;;;;;;;;56.50;42.50;;;;;1.90;100.00;101696.59;6281799;20;2852353;-45
2023/12/17 06:58:52;;;;;;;;;60.00;44.50;;;;;1.89;100.00;101709.81;6281162;20;2856535;-44
2023/12/17 07:01:22;;;;;;;;;46.67;40.67;;;;;1.96;100.00;101701.03;6280615;20;2871206;-44
2023/12/17 07:03:51;;;;;;;;;50.50;40.50;;;;;2.25;100.00;101703.84;6311366;20;2847354;-45
2023/12/17 07:06:21;;;;;;;;;48.50;41.00;;;;;2.27;100.00;101693.25;6280006;20;2874344;-45
2023/12/17 07:08:50;;;;;;;;;36.50;36.50;;;;;2.38;100.00;101676.53;6281122;20;2864936;-44
2023/12/17 07:11:19;;;;;;;;;43.00;37.00;;;;;2.52;100.00;101673.03;6281794;20;2859680;-47
2023/12/17 07:13:51;;;;;;;;;44.00;37.00;;;;;2.53;100.00;101673.06;6281009;20;2875304;-45
2023/12/17 07:16:28;;;;;;;;;45.00;34.00;;;;;2.75;100.00;101681.94;6278055;20;2856579;-46
2023/12/17 07:18:56;;;;;;;;;34.50;27.50;;;;;3.05;100.00;101683.78;6310651;20;2850309;-43
2023/12/17 07:21:26;;;;;;;;;32.50;30.00;;;;;3.07;100.00;101675.81;6279625;20;2854524;-44
2023/12/17 07:23:56;;;;;;;;;31.00;29.50;;;;;3.14;100.00;101688.22;6278954;20;2849327;-46
2023/12/17 07:26:25;;;;;;;;;35.50;28.50;;;;;3.06;100.00;101674.94;6277809;20;2851380;-44
2023/12/17 07:28:54;;;;;;;;;43.00;35.50;;;;;3.37;100.00;101684.69;6278972;20;2861764;-44
2023/12/17 07:31:23;;;;;;;;;44.67;35.00;;;;;3.21;100.00;101694.41;6280050;20;2867098;-47
2023/12/17 07:33:53;;;;;;;;;38.67;37.00;;;;;3.30;100.00;101697.97;6311375;20;2866978;-45
2023/12/17 07:36:23;;;;;;;;;52.50;42.00;;;;;3.52;100.00;101706.81;6310753;20;2873338;-44
2023/12/17 07:38:52;;;;;;;;;36.00;30.00;;;;;3.29;100.00;101697.94;6310793;20;2854451;-44
2023/12/17 07:41:21;;;;;;;;;31.50;30.00;;;;;3.39;100.00;101698.84;6278826;20;2848189;-44
2023/12/17 07:43:50;;;;;;;;;40.00;35.00;;;;;3.56;100.00;101691.78;6271965;20;2860683;-46
2023/12/17 07:46:19;;;;;;;;;32.00;28.50;;;;;3.55;100.00;101694.41;6278266;20;2846183;-45
2023/12/17 07:48:48;;;;;;;;;51.33;38.00;;;;;3.68;100.00;101693.53;6278921;20;3636839;-44
2023/12/17 07:51:18;;;;;;;;;32.00;31.50;;;;;3.92;100.00;101700.56;6306990;20;2852362;-45
2023/12/17 07:53:47;;;;;;;;;29.50;24.50;;;;;3.74;100.00;101697.06;6277230;20;2830455;-45
2023/12/17 07:56:16;;;;;;;;;37.50;30.50;;;;;3.71;100.00;101713.03;6279311;20;2850360;-45
2023/12/17 07:58:44;;;;;;;;;27.50;24.00;;;;;4.01;100.00;101715.63;6276025;20;2500282;-46
2023/12/17 08:01:13;;;;;;;;;43.00;31.00;;;;;4.14;100.00;101718.25;6284651;20;2860752;-45
2023/12/17 08:03:44;;;;;;;;;36.00;31.50;;;;;3.99;100.00;101710.31;6279101;20;2858751;-44
2023/12/17 08:06:13;;;;;;;;;30.00;26.00;;;;;3.99;100.00;101712.09;6274638;20;2500344;-45
2023/12/17 08:08:42;;;;;;;;;29.00;25.00;;;;;4.07;100.00;101719.16;6284429;20;2500354;-44
2023/12/17 08:11:12;;;;;;;;;42.00;31.33;;;;;4.22;100.00;101714.69;6281480;20;2866070;-44
2023/12/17 08:13:41;;;;;;;;;29.00;27.33;;;;;4.17;100.00;101723.56;6316136;20;3581612;-46
2023/12/17 08:16:10;;;;;;;;;30.00;28.00;;;;;4.28;100.00;101725.31;6313126;20;2840912;-46
2023/12/17 08:18:39;;;;;;;;;33.00;29.50;;;;;4.28;100.00;101727.97;6281364;20;2854454;-45
2023/12/17 08:21:08;;;;;;;;;35.00;30.00;;;;;4.25;100.00;101730.66;6281447;20;2855501;-46
2023/12/17 08:23:38;;;;;;;;;43.33;33.33;;;;;4.39;100.00;101734.13;6281169;20;3610798;-45
2023/12/17 08:26:11;;;;;;;;;30.00;29.00;;;;;4.67;100.00;101747.34;6309373;20;2849294;-44
2023/12/17 08:28:40;;;;;;;;;32.00;30.00;;;;;5.13;100.00;101752.44;6280106;20;2852375;-44
2023/12/17 08:31:09;;;;;;;;;28.00;24.50;;;;;4.83;100.00;101741.06;6280565;20;2854492;-45
2023/12/17 08:33:39;;;;;;;;;25.00;21.50;;;;;5.02;99.84;101739.19;6282984;20;2848190;-47
2023/12/17 08:36:09;;;;;;;;;33.00;31.00;;;;;4.98;100.00;101740.09;6284259;20;2850303;-46
2023/12/17 08:38:39;;;;;;;;;39.00;31.67;;;;;5.14;99.96;101732.91;6285674;20;2872155;-47
2023/12/17 08:41:08;;;;;;;;;31.50;25.50;;;;;5.11;98.21;101735.56;6313986;20;2858631;-48
2023/12/17 08:43:36;;;;;;;;;21.50;21.50;;;;;5.16;98.46;101740.00;6283296;20;2500331;-45
2023/12/17 08:46:06;;;;;;;;;28.50;27.50;;;;;5.30;98.70;101745.22;6283968;20;2832737;-47
2023/12/17 08:48:35;;;;;;;;;34.67;26.67;;;;;5.05;99.11;101748.06;6287313;20;3586770;-47
2023/12/17 08:51:04;;;;;;;;;32.00;30.00;;;;;5.33;98.26;101750.53;6283019;20;2837808;-46
2023/12/17 08:53:33;;;;;;;;;33.00;28.50;;;;;5.53;96.43;101749.50;6284661;20;2847329;-49
2023/12/17 08:56:03;;;;;;;;;35.00;24.50;;;;;5.39;97.07;101737.16;6283533;20;2865880;-46
2023/12/17 08:58:32;;;;;;;;;40.33;34.67;;;;;5.23;98.53;101733.72;6284108;20;3606496;-45
2023/12/17 09:01:02;;;;;;;;;36.33;33.33;;;;;5.52;97.70;101737.09;6315794;20;3611697;-46
2023/12/17 09:03:31;;;;;;;;;31.00;29.00;;;;;5.39;96.11;101730.97;6283930;20;2848336;-46
2023/12/17 09:06:00;;;;;;;;;32.50;30.00;;;;;5.32;98.04;101730.13;6279791;20;2853424;-44
2023/12/17 09:08:29;;;;;;;;;31.50;25.50;;;;;5.27;98.54;101726.63;6280179;20;2855493;-45
2023/12/17 09:10:58;;;;;;;;;29.50;27.00;;;;;5.49;96.83;101725.53;6278766;20;2852470;-45
2023/12/17 09:13:27;;;;;;;;;30.00;25.00;;;;;5.43;96.66;101719.41;6283133;20;2852815;-44
2023/12/17 09:15:56;;;;;;;;;31.50;27.00;;;;;5.69;94.94;101727.19;6282768;20;2837875;-44
2023/12/17 09:18:25;;;;;;;;;35.67;24.67;;;;;5.76;94.45;101731.53;6285596;20;2865941;-44
2023/12/17 09:20:55;;;;;;;;;25.00;25.00;;;;;5.89;95.57;101722.53;6314201;20;2849300;-44
2023/12/17 09:23:24;;;;;;;;;32.50;30.50;;;;;5.97;93.09;101721.63;6283304;20;2854955;-44
2023/12/17 09:25:52;;;;;;;;;8.67;2.33;;;;;5.98;93.13;101726.03;6286947;20;3451245;-43
2023/12/17 09:28:21;;;;;;;;;28.00;21.00;;;;;5.93;92.69;101724.31;6315813;20;2852376;-43
2023/12/17 09:30:50;;;;;;;;;40.67;31.33;;;;;6.09;92.90;101729.50;6282859;20;3623209;-44
2023/12/17 09:33:21;;;;;;;;;38.67;32.00;;;;;6.19;91.58;101730.28;6315911;20;3604432;-44
2023/12/17 09:35:50;;;;;;;;;28.50;25.50;;;;;6.00;93.70;101724.25;6283689;20;2844032;-44
2023/12/17 09:38:19;;;;;;;;;25.00;24.00;;;;;6.01;93.21;101723.38;6281390;20;2850304;-44
2023/12/17 09:40:48;;;;;;;;;31.00;27.00;;;;;6.13;93.04;101723.22;6280969;20;2858643;-44
2023/12/17 09:43:18;;;;;;;;;32.00;27.50;;;;;5.88;92.83;101715.44;6282230;20;2847268;-43
2023/12/17 09:45:47;;;;;;;;;33.50;26.00;;;;;5.89;93.37;101709.19;6283608;20;2852345;-44
2023/12/17 09:48:15;;;;;;;;;25.00;24.00;;;;;5.89;93.79;101703.88;6282050;20;2849326;-46
2023/12/17 09:50:45;;;;;;;;;33.00;28.50;;;;;5.81;95.11;101703.06;6280583;20;2856985;-44
2023/12/17 09:53:14;;;;;;;;;27.50;26.00;;;;;5.74;95.05;101696.03;6284907;20;2850315;-47
2023/12/17 09:55:43;;;;;;;;;31.50;26.50;;;;;5.94;94.08;101703.88;6280170;20;2849731;-44
2023/12/17 09:58:12;;;;;;;;;32.00;29.00;;;;;5.88;94.17;101694.13;6280687;20;2854383;-44
2023/12/17 10:00:43;;;;;;;;;31.50;31.50;;;;;5.84;94.50;101689.69;6313861;20;2854671;-44
2023/12/17 10:03:14;;;;;;;;;25.00;24.00;;;;;5.80;94.03;101685.31;6282823;20;2849303;-44
2023/12/17 10:05:53;;;;;;;;;33.67;25.33;;;;;5.59;94.33;101688.19;6282675;20;2870107;-45
2023/12/17 10:08:23;;;;;;;;;34.00;28.00;;;;;6.01;94.71;101680.72;6310963;20;2856531;-43
2023/12/17 10:10:52;;;;;;;;;26.50;25.00;;;;;6.00;94.14;101677.13;6281478;20;2850551;-45
2023/12/17 10:13:23;;;;;;;;;29.00;27.50;;;;;6.15;93.23;101671.63;6283334;20;2858617;-45
2023/12/17 10:15:56;;;;;;;;;27.50;25.00;;;;;6.11;92.80;101664.59;6283367;20;2853456;-45
2023/12/17 10:18:25;;;;;;;;;26.00;25.00;;;;;5.91;93.92;101662.09;6282583;20;2852488;-45
2023/12/17 10:20:54;;;;;;;;;35.50;30.00;;;;;6.45;91.99;101666.84;6277560;20;2872247;-44
2023/12/17 10:23:24;;;;;;;;;37.00;32.67;;;;;6.10;91.80;101656.59;6280272;20;2865986;-45
2023/12/17 10:26:03;;;;;;;;;35.67;28.00;;;;;6.43;90.48;101663.31;6315377;20;3618990;-47
2023/12/17 10:28:35;;;;;;;;;29.33;26.33;;;;;6.22;90.93;101660.91;6282422;20;2850316;-47
2023/12/17 10:31:08;;;;;;;;;26.00;26.00;;;;;6.25;91.71;101656.41;6310361;20;2846223;-47
2023/12/17 10:34:01;;;;;;;;;41.00;35.00;;;;;6.28;92.71;101656.38;6281149;20;2842062;-45
2023/12/17 10:36:31;;;;;;;;;30.00;30.00;;;;;6.26;91.49;101666.16;6281515;20;2853363;-44
2023/12/17 10:39:03;;;;;;;;;27.50;27.50;;;;;6.58;90.09;101667.56;6281393;20;2846219;-45
2023/12/17 10:41:36;;;;;;;;;33.00;29.00;;;;;6.67;90.27;101664.78;6278656;20;2864959;-45
2023/12/17 10:44:14;;;;;;;;;29.00;24.50;;;;;6.27;91.88;101657.28;6309730;20;2846141;-46
2023/12/17 10:46:45;;;;;;;;;39.67;31.33;;;;;6.21;91.53;101654.66;6279685;20;2880606;-47
2023/12/17 10:49:15;;;;;;;;;31.00;26.00;;;;;6.42;91.19;101650.84;6311736;20;3603375;-45
2023/12/17 10:51:44;;;;;;;;;31.00;27.00;;;;;6.75;90.21;101654.00;6283043;20;2854962;-44
2023/12/17 10:54:14;;;;;;;;;36.33;34.00;;;;;7.03;90.22;101649.13;6314597;20;3610654;-45
2023/12/17 10:56:51;;;;;;;;;41.50;38.00;;;;;7.11;90.37;101649.91;6282088;20;2862812;-45
2023/12/17 10:59:31;;;;;;;;;58.67;45.33;;;;;7.13;88.51;101649.84;6280376;20;2860746;-45
2023/12/17 11:02:10;;;;;;;;;45.33;37.33;;;;;7.00;89.16;101643.81;6313715;20;3605563;-45
2023/12/17 11:04:45;;;;;;;;;40.67;35.00;;;;;7.09;89.63;101645.50;6278834;20;3594019;-47
2023/12/17 11:07:22;;;;;;;;;34.67;29.00;;;;;6.63;90.13;101636.34;6310551;20;3593068;-45
2023/12/17 11:10:10;;;;;;;;;26.50;24.00;;;;;6.95;90.19;101633.22;6308508;20;2836779;-44